Aviation Digital Data Service (ADDS)

Output produced by METARs form (1357 UTC 22 April 2019)
found at http://www.aviationweather.gov/metar/data/
 
METAR text: KPSP 221353Z 27005KT 10SM CLR 18/06 A2992 RMK AO2 SLP128 T01830056
Conditions at: KPSP (PALM SPRINGS , CA, US) observed 1353 UTC 22 April 2019
Temperature: 18.3°C (65°F)
Dewpoint: 5.6°C (42°F) [RH = 43%]
Pressure (altimeter): 29.92 inches Hg (1013.3 mb)
[Sea-level pressure: 1012.8 mb]
Winds: from the W (270 degrees) at 6 MPH (5 knots; 2.6 m/s)
Visibility: 10 or more miles (16+ km)
Ceiling: at least 12,000 feet AGL
Clouds: sky clear below 12,000 feet AGL
Weather: no significant weather observed at this time

METAR text: KPSP 221253Z VRB06G14KT 10SM CLR 18/06 A2989 RMK AO2 SLP120 T01780061
Conditions at: KPSP (PALM SPRINGS , CA, US) observed 1253 UTC 22 April 2019
Temperature: 17.8°C (64°F)
Dewpoint: 6.1°C (43°F) [RH = 46%]
Pressure (altimeter): 29.89 inches Hg (1012.3 mb)
[Sea-level pressure: 1012.0 mb]
Winds: variable direction winds at 7 MPH (6 knots; 3.1 m/s)
gusting to 16 MPH (14 knots; 7.2 m/s)
Visibility: 10 or more miles (16+ km)
Ceiling: at least 12,000 feet AGL
Clouds: sky clear below 12,000 feet AGL
Weather: no significant weather observed at this time

METAR text: KPSP 221153Z 32013KT 10SM CLR 18/06 A2987 RMK AO2 SLP112 T01830061 10211 20183 55002
Conditions at: KPSP (PALM SPRINGS , CA, US) observed 1153 UTC 22 April 2019
Temperature: 18.3°C (65°F)
Dewpoint: 6.1°C (43°F) [RH = 45%]
Pressure (altimeter): 29.87 inches Hg (1011.6 mb)
[Sea-level pressure: 1011.2 mb]
Winds: from the NW (320 degrees) at 15 MPH (13 knots; 6.7 m/s)
Visibility: 10 or more miles (16+ km)
Ceiling: at least 12,000 feet AGL
Clouds: sky clear below 12,000 feet AGL
Weather: no significant weather observed at this time

METAR text: KPSP 221053Z 28006KT 10SM CLR 19/07 A2987 RMK AO2 SLP111 T01890067
Conditions at: KPSP (PALM SPRINGS , CA, US) observed 1053 UTC 22 April 2019
Temperature: 18.9°C (66°F)
Dewpoint: 6.7°C (44°F) [RH = 45%]
Pressure (altimeter): 29.87 inches Hg (1011.6 mb)
[Sea-level pressure: 1011.1 mb]
Winds: from the W (280 degrees) at 7 MPH (6 knots; 3.1 m/s)
Visibility: 10 or more miles (16+ km)
Ceiling: at least 12,000 feet AGL
Clouds: sky clear below 12,000 feet AGL
Weather: no significant weather observed at this time

METAR text: KPSP 220953Z 32009KT 10SM CLR 19/07 A2987 RMK AO2 SLP113 T01940067
Conditions at: KPSP (PALM SPRINGS , CA, US) observed 0953 UTC 22 April 2019
Temperature: 19.4°C (67°F)
Dewpoint: 6.7°C (44°F) [RH = 44%]
Pressure (altimeter): 29.87 inches Hg (1011.6 mb)
[Sea-level pressure: 1011.3 mb]
Winds: from the NW (320 degrees) at 10 MPH (9 knots; 4.6 m/s)
Visibility: 10 or more miles (16+ km)
Ceiling: at least 12,000 feet AGL
Clouds: sky clear below 12,000 feet AGL
Weather: no significant weather observed at this time

METAR text: KPSP 220853Z 32006G17KT 10SM CLR 19/07 A2988 RMK AO2 SLP114 T01940067 51006
Conditions at: KPSP (PALM SPRINGS , CA, US) observed 0853 UTC 22 April 2019
Temperature: 19.4°C (67°F)
Dewpoint: 6.7°C (44°F) [RH = 44%]
Pressure (altimeter): 29.88 inches Hg (1011.9 mb)
[Sea-level pressure: 1011.4 mb]
Winds: from the NW (320 degrees) at 7 MPH (6 knots; 3.1 m/s)
gusting to 20 MPH (17 knots; 8.7 m/s)
Visibility: 10 or more miles (16+ km)
Ceiling: at least 12,000 feet AGL
Clouds: sky clear below 12,000 feet AGL
Weather: no significant weather observed at this time

METAR text: KPSP 220753Z 31013KT 10SM CLR 19/07 A2987 RMK AO2 SLP114 T01940072 403000144
Conditions at: KPSP (PALM SPRINGS , CA, US) observed 0753 UTC 22 April 2019
Temperature: 19.4°C (67°F)
Dewpoint: 7.2°C (45°F) [RH = 45%]
Pressure (altimeter): 29.87 inches Hg (1011.6 mb)
[Sea-level pressure: 1011.4 mb]
Winds: from the NW (310 degrees) at 15 MPH (13 knots; 6.7 m/s)
Visibility: 10 or more miles (16+ km)
Ceiling: at least 12,000 feet AGL
Clouds: sky clear below 12,000 feet AGL
Weather: no significant weather observed at this time

METAR text: KPSP 220653Z 32013KT 10SM CLR 21/07 A2986 RMK AO2 SLP110 T02060072
Conditions at: KPSP (PALM SPRINGS , CA, US) observed 0653 UTC 22 April 2019
Temperature: 20.6°C (69°F)
Dewpoint: 7.2°C (45°F) [RH = 42%]
Pressure (altimeter): 29.86 inches Hg (1011.3 mb)
[Sea-level pressure: 1011.0 mb]
Winds: from the NW (320 degrees) at 15 MPH (13 knots; 6.7 m/s)
Visibility: 10 or more miles (16+ km)
Ceiling: at least 12,000 feet AGL
Clouds: sky clear below 12,000 feet AGL
Weather: no significant weather observed at this time

METAR text: KPSP 220553Z 32012KT 10SM CLR 21/07 A2986 RMK AO2 SLP108 T02110072 10294 20211 51018
Conditions at: KPSP (PALM SPRINGS , CA, US) observed 0553 UTC 22 April 2019
Temperature: 21.1°C (70°F)
Dewpoint: 7.2°C (45°F) [RH = 41%]
Pressure (altimeter): 29.86 inches Hg (1011.3 mb)
[Sea-level pressure: 1010.8 mb]
Winds: from the NW (320 degrees) at 14 MPH (12 knots; 6.2 m/s)
Visibility: 10 or more miles (16+ km)
Ceiling: at least 12,000 feet AGL
Clouds: sky clear below 12,000 feet AGL
Weather: no significant weather observed at this time

METAR text: KPSP 220453Z 32017G24KT 10SM CLR 22/07 A2984 RMK AO2 PK WND 32026/0355 SLP104 T02170072
Conditions at: KPSP (PALM SPRINGS , CA, US) observed 0453 UTC 22 April 2019
Temperature: 21.7°C (71°F)
Dewpoint: 7.2°C (45°F) [RH = 39%]
Pressure (altimeter): 29.84 inches Hg (1010.6 mb)
[Sea-level pressure: 1010.4 mb]
Winds: from the NW (320 degrees) at 20 MPH (17 knots; 8.7 m/s)
gusting to 28 MPH (24 knots; 12.3 m/s)
Visibility: 10 or more miles (16+ km)
Ceiling: at least 12,000 feet AGL
Clouds: sky clear below 12,000 feet AGL
Weather: no significant weather observed at this time

METAR text: KPSP 220353Z 32017G23KT 10SM CLR 22/08 A2983 RMK AO2 PK WND 32027/0303 SLP099 T02220078
Conditions at: KPSP (PALM SPRINGS , CA, US) observed 0353 UTC 22 April 2019
Temperature: 22.2°C (72°F)
Dewpoint: 7.8°C (46°F) [RH = 40%]
Pressure (altimeter): 29.83 inches Hg (1010.2 mb)
[Sea-level pressure: 1009.9 mb]
Winds: from the NW (320 degrees) at 20 MPH (17 knots; 8.7 m/s)
gusting to 26 MPH (23 knots; 11.8 m/s)
Visibility: 10 or more miles (16+ km)
Ceiling: at least 12,000 feet AGL
Clouds: sky clear below 12,000 feet AGL
Weather: no significant weather observed at this time

METAR text: KPSP 220253Z 32020G25KT 10SM CLR 24/07 A2980 RMK AO2 SLP090 T02390072 53003
Conditions at: KPSP (PALM SPRINGS , CA, US) observed 0253 UTC 22 April 2019
Temperature: 23.9°C (75°F)
Dewpoint: 7.2°C (45°F) [RH = 34%]
Pressure (altimeter): 29.80 inches Hg (1009.2 mb)
[Sea-level pressure: 1009.0 mb]
Winds: from the NW (320 degrees) at 23 MPH (20 knots; 10.3 m/s)
gusting to 29 MPH (25 knots; 12.9 m/s)
Visibility: 10 or more miles (16+ km)
Ceiling: at least 12,000 feet AGL
Clouds: sky clear below 12,000 feet AGL
Weather: no significant weather observed at this time

METAR text: KPSP 220153Z 32016G22KT 10SM CLR 26/07 A2979 RMK AO2 PK WND 32026/0103 SLP084 T02560067
Conditions at: KPSP (PALM SPRINGS , CA, US) observed 0153 UTC 22 April 2019
Temperature: 25.6°C (78°F)
Dewpoint: 6.7°C (44°F) [RH = 30%]
Pressure (altimeter): 29.79 inches Hg (1008.9 mb)
[Sea-level pressure: 1008.4 mb]
Winds: from the NW (320 degrees) at 18 MPH (16 knots; 8.2 m/s)
gusting to 25 MPH (22 knots; 11.3 m/s)
Visibility: 10 or more miles (16+ km)
Ceiling: at least 12,000 feet AGL
Clouds: sky clear below 12,000 feet AGL
Weather: no significant weather observed at this time

METAR text: KPSP 220053Z 32015KT 10SM CLR 28/06 A2979 RMK AO2 SLP085 T02780056
Conditions at: KPSP (PALM SPRINGS , CA, US) observed 0053 UTC 22 April 2019
Temperature: 27.8°C (82°F)
Dewpoint: 5.6°C (42°F) [RH = 24%]
Pressure (altimeter): 29.79 inches Hg (1008.9 mb)
[Sea-level pressure: 1008.5 mb]
Winds: from the NW (320 degrees) at 17 MPH (15 knots; 7.7 m/s)
Visibility: 10 or more miles (16+ km)
Ceiling: at least 12,000 feet AGL
Clouds: sky clear below 12,000 feet AGL
Weather: no significant weather observed at this time

METAR text: KPSP 212353Z 32011G23KT 10SM CLR 29/04 A2980 RMK AO2 SLP087 T02890039 10300 20233 56022
Conditions at: KPSP (PALM SPRINGS , CA, US) observed 2353 UTC 21 April 2019
Temperature: 28.9°C (84°F)
Dewpoint: 3.9°C (39°F) [RH = 20%]
Pressure (altimeter): 29.80 inches Hg (1009.2 mb)
[Sea-level pressure: 1008.7 mb]
Winds: from the NW (320 degrees) at 13 MPH (11 knots; 5.7 m/s)
gusting to 26 MPH (23 knots; 11.8 m/s)
Visibility: 10 or more miles (16+ km)
Ceiling: at least 12,000 feet AGL
Clouds: sky clear below 12,000 feet AGL
Weather: no significant weather observed at this time

METAR text: KPSP 212253Z 33016G20KT 10SM CLR 30/03 A2980 RMK AO2 SLP089 T03000033
Conditions at: KPSP (PALM SPRINGS , CA, US) observed 2253 UTC 21 April 2019
Temperature: 30.0°C (86°F)
Dewpoint: 3.3°C (38°F) [RH = 18%]
Pressure (altimeter): 29.80 inches Hg (1009.2 mb)
[Sea-level pressure: 1008.9 mb]
Winds: from the NNW (330 degrees) at 18 MPH (16 knots; 8.2 m/s)
gusting to 23 MPH (20 knots; 10.3 m/s)
Visibility: 10 or more miles (16+ km)
Ceiling: at least 12,000 feet AGL
Clouds: sky clear below 12,000 feet AGL
Weather: no significant weather observed at this time

METAR text: KPSP 212153Z 33010KT 10SM CLR 29/03 A2983 RMK AO2 SLP100 T02940033
Conditions at: KPSP (PALM SPRINGS , CA, US) observed 2153 UTC 21 April 2019
Temperature: 29.4°C (85°F)
Dewpoint: 3.3°C (38°F) [RH = 19%]
Pressure (altimeter): 29.83 inches Hg (1010.2 mb)
[Sea-level pressure: 1010.0 mb]
Winds: from the NNW (330 degrees) at 12 MPH (10 knots; 5.1 m/s)
Visibility: 10 or more miles (16+ km)
Ceiling: at least 12,000 feet AGL
Clouds: sky clear below 12,000 feet AGL
Weather: no significant weather observed at this time

METAR text: KPSP 212053Z 35008G21KT 10SM CLR 28/04 A2986 RMK AO2 SLP109 T02780044 58017
Conditions at: KPSP (PALM SPRINGS , CA, US) observed 2053 UTC 21 April 2019
Temperature: 27.8°C (82°F)
Dewpoint: 4.4°C (40°F) [RH = 22%]
Pressure (altimeter): 29.86 inches Hg (1011.3 mb)
[Sea-level pressure: 1010.9 mb]
Winds: from the N (350 degrees) at 9 MPH (8 knots; 4.1 m/s)
gusting to 24 MPH (21 knots; 10.8 m/s)
Visibility: 10 or more miles (16+ km)
Ceiling: at least 12,000 feet AGL
Clouds: sky clear below 12,000 feet AGL
Weather: no significant weather observed at this time

METAR text: KPSP 211953Z 34008KT 10SM CLR 26/04 A2990 RMK AO2 SLP121 T02610039
Conditions at: KPSP (PALM SPRINGS , CA, US) observed 1953 UTC 21 April 2019
Temperature: 26.1°C (79°F)
Dewpoint: 3.9°C (39°F) [RH = 24%]
Pressure (altimeter): 29.90 inches Hg (1012.6 mb)
[Sea-level pressure: 1012.1 mb]
Winds: from the NNW (340 degrees) at 9 MPH (8 knots; 4.1 m/s)
Visibility: 10 or more miles (16+ km)
Ceiling: at least 12,000 feet AGL
Clouds: sky clear below 12,000 feet AGL
Weather: no significant weather observed at this time

METAR text: KPSP 211853Z 01010KT 310V040 10SM CLR 26/03 A2991 RMK AO2 PK WND 32029/1804 SLP127 T02560033
Conditions at: KPSP (PALM SPRINGS , CA, US) observed 1853 UTC 21 April 2019
Temperature: 25.6°C (78°F)
Dewpoint: 3.3°C (38°F) [RH = 24%]
Pressure (altimeter): 29.91 inches Hg (1013.0 mb)
[Sea-level pressure: 1012.7 mb]
Winds: from the N (10 degrees) at 12 MPH (10 knots; 5.1 m/s)
Visibility: 10 or more miles (16+ km)
Ceiling: at least 12,000 feet AGL
Clouds: sky clear below 12,000 feet AGL
Weather: no significant weather observed at this time

METAR text: KPSP 211753Z 32017G26KT 10SM CLR 23/04 A2991 RMK AO2 PK WND 32030/1659 SLP127 T02330044 10233 20144 53016
Conditions at: KPSP (PALM SPRINGS , CA, US) observed 1753 UTC 21 April 2019
Temperature: 23.3°C (74°F)
Dewpoint: 4.4°C (40°F) [RH = 29%]
Pressure (altimeter): 29.91 inches Hg (1013.0 mb)
[Sea-level pressure: 1012.7 mb]
Winds: from the NW (320 degrees) at 20 MPH (17 knots; 8.7 m/s)
gusting to 30 MPH (26 knots; 13.4 m/s)
Visibility: 10 or more miles (16+ km)
Ceiling: at least 12,000 feet AGL
Clouds: sky clear below 12,000 feet AGL
Weather: no significant weather observed at this time

METAR text: KPSP 211653Z 32014G29KT 10SM CLR 22/04 A2989 RMK AO2 PK WND 33029/1650 SLP120 T02220044
Conditions at: KPSP (PALM SPRINGS , CA, US) observed 1653 UTC 21 April 2019
Temperature: 22.2°C (72°F)
Dewpoint: 4.4°C (40°F) [RH = 31%]
Pressure (altimeter): 29.89 inches Hg (1012.3 mb)
[Sea-level pressure: 1012.0 mb]
Winds: from the NW (320 degrees) at 16 MPH (14 knots; 7.2 m/s)
gusting to 33 MPH (29 knots; 14.9 m/s)
Visibility: 10 or more miles (16+ km)
Ceiling: at least 12,000 feet AGL
Clouds: sky clear below 12,000 feet AGL
Weather: no significant weather observed at this time

METAR text: KPSP 211553Z 00000KT 9SM CLR 20/06 A2987 RMK AO2 SLP113 T02000061
Conditions at: KPSP (PALM SPRINGS , CA, US) observed 1553 UTC 21 April 2019
Temperature: 20.0°C (68°F)
Dewpoint: 6.1°C (43°F) [RH = 40%]
Pressure (altimeter): 29.87 inches Hg (1011.6 mb)
[Sea-level pressure: 1011.3 mb]
Winds: calm
Visibility: 9 miles (14 km)
Ceiling: at least 12,000 feet AGL
Clouds: sky clear below 12,000 feet AGL
Weather: no significant weather observed at this time

METAR text: KPSP 211453Z 00000KT 7SM CLR 18/07 A2986 RMK AO2 SLP111 T01780067 53018
Conditions at: KPSP (PALM SPRINGS , CA, US) observed 1453 UTC 21 April 2019
Temperature: 17.8°C (64°F)
Dewpoint: 6.7°C (44°F) [RH = 48%]
Pressure (altimeter): 29.86 inches Hg (1011.3 mb)
[Sea-level pressure: 1011.1 mb]
Winds: calm
Visibility: 7 miles (11 km)
Ceiling: at least 12,000 feet AGL
Clouds: sky clear below 12,000 feet AGL
Weather: no significant weather observed at this time

METAR text: KPSP 211353Z 17003KT 6SM HZ CLR 16/07 A2984 RMK AO2 SLP103 T01560067
Conditions at: KPSP (PALM SPRINGS , CA, US) observed 1353 UTC 21 April 2019
Temperature: 15.6°C (60°F)
Dewpoint: 6.7°C (44°F) [RH = 55%]
Pressure (altimeter): 29.84 inches Hg (1010.6 mb)
[Sea-level pressure: 1010.3 mb]
Winds: from the S (170 degrees) at 3 MPH (3 knots; 1.5 m/s)
Visibility: 6 miles (10 km)
Ceiling: at least 12,000 feet AGL
Clouds: sky clear below 12,000 feet AGL
Weather: HZ  (haze)

METAR text: KPSP 211253Z 20003KT 8SM CLR 14/07 A2982 RMK AO2 SLP097 T01440067
Conditions at: KPSP (PALM SPRINGS , CA, US) observed 1253 UTC 21 April 2019
Temperature: 14.4°C (58°F)
Dewpoint: 6.7°C (44°F) [RH = 60%]
Pressure (altimeter): 29.82 inches Hg (1009.9 mb)
[Sea-level pressure: 1009.7 mb]
Winds: from the SSW (200 degrees) at 3 MPH (3 knots; 1.5 m/s)
Visibility: 8 miles (13 km)
Ceiling: at least 12,000 feet AGL
Clouds: sky clear below 12,000 feet AGL
Weather: no significant weather observed at this time

METAR text: KPSP 211153Z 00000KT 8SM CLR 14/07 A2981 RMK AO2 SLP093 T01440067 10200 20144 58001
Conditions at: KPSP (PALM SPRINGS , CA, US) observed 1153 UTC 21 April 2019
Temperature: 14.4°C (58°F)
Dewpoint: 6.7°C (44°F) [RH = 60%]
Pressure (altimeter): 29.81 inches Hg (1009.6 mb)
[Sea-level pressure: 1009.3 mb]
Winds: calm
Visibility: 8 miles (13 km)
Ceiling: at least 12,000 feet AGL
Clouds: sky clear below 12,000 feet AGL
Weather: no significant weather observed at this time

METAR text: KPSP 211053Z VRB03KT 9SM CLR 16/07 A2982 RMK AO2 SLP094 T01610067
Conditions at: KPSP (PALM SPRINGS , CA, US) observed 1053 UTC 21 April 2019
Temperature: 16.1°C (61°F)
Dewpoint: 6.7°C (44°F) [RH = 54%]
Pressure (altimeter): 29.82 inches Hg (1009.9 mb)
[Sea-level pressure: 1009.4 mb]
Winds: variable direction winds at 3 MPH (3 knots; 1.5 m/s)
Visibility: 9 miles (14 km)
Ceiling: at least 12,000 feet AGL
Clouds: sky clear below 12,000 feet AGL
Weather: no significant weather observed at this time

METAR text: KPSP 210953Z 15003KT 8SM CLR 17/07 A2981 RMK AO2 SLP094 T01670072
Conditions at: KPSP (PALM SPRINGS , CA, US) observed 0953 UTC 21 April 2019
Temperature: 16.7°C (62°F)
Dewpoint: 7.2°C (45°F) [RH = 53%]
Pressure (altimeter): 29.81 inches Hg (1009.6 mb)
[Sea-level pressure: 1009.4 mb]
Winds: from the SSE (150 degrees) at 3 MPH (3 knots; 1.5 m/s)
Visibility: 8 miles (13 km)
Ceiling: at least 12,000 feet AGL
Clouds: sky clear below 12,000 feet AGL
Weather: no significant weather observed at this time

METAR text: KPSP 210853Z VRB04KT 10SM CLR 18/05 A2981 RMK AO2 SLP093 T01830050 50005
Conditions at: KPSP (PALM SPRINGS , CA, US) observed 0853 UTC 21 April 2019
Temperature: 18.3°C (65°F)
Dewpoint: 5.0°C (41°F) [RH = 41%]
Pressure (altimeter): 29.81 inches Hg (1009.6 mb)
[Sea-level pressure: 1009.3 mb]
Winds: variable direction winds at 5 MPH (4 knots; 2.1 m/s)
Visibility: 10 or more miles (16+ km)
Ceiling: at least 12,000 feet AGL
Clouds: sky clear below 12,000 feet AGL
Weather: no significant weather observed at this time

METAR text: KPSP 210753Z 30010G24KT 10SM CLR 19/06 A2981 RMK AO2 PK WND 32029/0701 SLP093 T01890061 403220183
Conditions at: KPSP (PALM SPRINGS , CA, US) observed 0753 UTC 21 April 2019
Temperature: 18.9°C (66°F)
Dewpoint: 6.1°C (43°F) [RH = 43%]
Pressure (altimeter): 29.81 inches Hg (1009.6 mb)
[Sea-level pressure: 1009.3 mb]
Winds: from the WNW (300 degrees) at 12 MPH (10 knots; 5.1 m/s)
gusting to 28 MPH (24 knots; 12.3 m/s)
Visibility: 10 or more miles (16+ km)
Ceiling: at least 12,000 feet AGL
Clouds: sky clear below 12,000 feet AGL
Weather: no significant weather observed at this time

METAR text: KPSP 210653Z 32019G25KT 10SM CLR 19/07 A2981 RMK AO2 PK WND 33029/0617 SLP090 T01940067
Conditions at: KPSP (PALM SPRINGS , CA, US) observed 0653 UTC 21 April 2019
Temperature: 19.4°C (67°F)
Dewpoint: 6.7°C (44°F) [RH = 44%]
Pressure (altimeter): 29.81 inches Hg (1009.6 mb)
[Sea-level pressure: 1009.0 mb]
Winds: from the NW (320 degrees) at 22 MPH (19 knots; 9.8 m/s)
gusting to 29 MPH (25 knots; 12.9 m/s)
Visibility: 10 or more miles (16+ km)
Ceiling: at least 12,000 feet AGL
Clouds: sky clear below 12,000 feet AGL
Weather: no significant weather observed at this time

METAR text: KPSP 210553Z 32018G26KT 10SM CLR 20/06 A2980 RMK AO2 PK WND 32031/0506 SLP088 T02000061 10317 20200 51016
Conditions at: KPSP (PALM SPRINGS , CA, US) observed 0553 UTC 21 April 2019
Temperature: 20.0°C (68°F)
Dewpoint: 6.1°C (43°F) [RH = 40%]
Pressure (altimeter): 29.80 inches Hg (1009.2 mb)
[Sea-level pressure: 1008.8 mb]
Winds: from the NW (320 degrees) at 21 MPH (18 knots; 9.3 m/s)
gusting to 30 MPH (26 knots; 13.4 m/s)
Visibility: 10 or more miles (16+ km)
Ceiling: at least 12,000 feet AGL
Clouds: sky clear below 12,000 feet AGL
Weather: no significant weather observed at this time

METAR text: KPSP 210453Z 33021G27KT 10SM CLR 22/03 A2979 RMK AO2 PK WND 32029/0437 SLP085 T02220033
Conditions at: KPSP (PALM SPRINGS , CA, US) observed 0453 UTC 21 April 2019
Temperature: 22.2°C (72°F)
Dewpoint: 3.3°C (38°F) [RH = 29%]
Pressure (altimeter): 29.79 inches Hg (1008.9 mb)
[Sea-level pressure: 1008.5 mb]
Winds: from the NNW (330 degrees) at 24 MPH (21 knots; 10.8 m/s)
gusting to 31 MPH (27 knots; 13.9 m/s)
Visibility: 10 or more miles (16+ km)
Ceiling: at least 12,000 feet AGL
Clouds: sky clear below 12,000 feet AGL
Weather: no significant weather observed at this time

METAR text: KPSP 210353Z 33015KT 10SM CLR 23/02 A2977 RMK AO2 SLP078 T02330017
Conditions at: KPSP (PALM SPRINGS , CA, US) observed 0353 UTC 21 April 2019
Temperature: 23.3°C (74°F)
Dewpoint: 1.7°C (35°F) [RH = 24%]
Pressure (altimeter): 29.77 inches Hg (1008.2 mb)
[Sea-level pressure: 1007.8 mb]
Winds: from the NNW (330 degrees) at 17 MPH (15 knots; 7.7 m/s)
Visibility: 10 or more miles (16+ km)
Ceiling: at least 12,000 feet AGL
Clouds: sky clear below 12,000 feet AGL
Weather: no significant weather observed at this time

METAR text: KPSP 210253Z 34010KT 10SM CLR 26/02 A2975 RMK AO2 SLP073 T02560017 53009
Conditions at: KPSP (PALM SPRINGS , CA, US) observed 0253 UTC 21 April 2019
Temperature: 25.6°C (78°F)
Dewpoint: 1.7°C (35°F) [RH = 21%]
Pressure (altimeter): 29.75 inches Hg (1007.5 mb)
[Sea-level pressure: 1007.3 mb]
Winds: from the NNW (340 degrees) at 12 MPH (10 knots; 5.1 m/s)
Visibility: 10 or more miles (16+ km)
Ceiling: at least 12,000 feet AGL
Clouds: sky clear below 12,000 feet AGL
Weather: no significant weather observed at this time

Forecast for: KPSP (PALM SPRINGS , CA, US)
Text: KPSP 221135Z 2212/2312 31007KT P6SM SKC
Forecast period: 1200 to 1800 UTC 22 April 2019
Forecast type: FROM: standard forecast or significant change
Winds: from the NW (310 degrees) at 8 MPH (7 knots; 3.6 m/s)
Visibility: 6 or more miles 10+ km)
Clouds: clear skies
Weather: no significant weather forecast for this period
Text: FM221800 35013G23KT P6SM SKC
Forecast period: 1800 to 2300 UTC 22 April 2019
Forecast type: FROM: standard forecast or significant change
Winds: from the N (350 degrees) at 15 MPH (13 knots; 6.7 m/s)
gusting to 26 MPH (23 knots; 11.8 m/s)
Visibility: 6 or more miles 10+ km)
Clouds: clear skies
Weather: no significant weather forecast for this period
Text: FM222300 35010KT P6SM SKC
Forecast period: 2300 UTC 22 April 2019 to 1200 UTC 23 April 2019
Forecast type: FROM: standard forecast or significant change
Winds: from the N (350 degrees) at 12 MPH (10 knots; 5.1 m/s)
Visibility: 6 or more miles 10+ km)
Clouds: clear skies
Weather: no significant weather forecast for this period